sensor_id;sensor_type;location;lat;lon;timestamp;pressure;altitude;pressure_sealevel;temperature;humidity
35910;BME280;22004;49.120;-0.200;2022-09-24T00:01:09;101084.88;;;15.05;100.00
35910;BME280;22004;49.120;-0.200;2022-09-24T00:03:35;101085.72;;;15.05;100.00
35910;BME280;22004;49.120;-0.200;2022-09-24T00:06:02;101084.19;;;15.01;100.00
35910;BME280;22004;49.120;-0.200;2022-09-24T00:08:28;101078.94;;;14.99;100.00
35910;BME280;22004;49.120;-0.200;2022-09-24T00:10:53;101077.13;;;15.00;100.00
35910;BME280;22004;49.120;-0.200;2022-09-24T00:13:20;101085.25;;;14.98;100.00
35910;BME280;22004;49.120;-0.200;2022-09-24T00:15:48;101080.69;;;15.01;100.00
35910;BME280;22004;49.120;-0.200;2022-09-24T00:18:15;101091.38;;;15.01;100.00
35910;BME280;22004;49.120;-0.200;2022-09-24T00:20:41;101080.94;;;14.96;100.00
35910;BME280;22004;49.120;-0.200;2022-09-24T00:23:07;101082.38;;;15.02;100.00
35910;BME280;22004;49.120;-0.200;2022-09-24T00:25:33;101084.88;;;15.05;100.00
35910;BME280;22004;49.120;-0.200;2022-09-24T00:28:22;101083.34;;;15.01;100.00
35910;BME280;22004;49.120;-0.200;2022-09-24T00:30:47;101081.53;;;15.01;100.00
35910;BME280;22004;49.120;-0.200;2022-09-24T00:33:15;101075.13;;;15.04;100.00
35910;BME280;22004;49.120;-0.200;2022-09-24T00:35:40;101088.69;;;15.01;100.00
35910;BME280;22004;49.120;-0.200;2022-09-24T00:38:06;101074.66;;;14.97;100.00
35910;BME280;22004;49.120;-0.200;2022-09-24T00:40:33;101074.56;;;14.98;100.00
35910;BME280;22004;49.120;-0.200;2022-09-24T00:42:59;101073.88;;;14.95;100.00
35910;BME280;22004;49.120;-0.200;2022-09-24T00:45:26;101078.19;;;14.97;100.00
35910;BME280;22004;49.120;-0.200;2022-09-24T00:47:52;101077.81;;;14.89;100.00
35910;BME280;22004;49.120;-0.200;2022-09-24T00:55:15;101064.91;;;14.96;100.00
35910;BME280;22004;49.120;-0.200;2022-09-24T00:57:44;101069.59;;;14.92;100.00
35910;BME280;22004;49.120;-0.200;2022-09-24T01:00:12;101076.59;;;14.80;100.00
35910;BME280;22004;49.120;-0.200;2022-09-24T01:02:40;101065.22;;;14.91;100.00
35910;BME280;22004;49.120;-0.200;2022-09-24T01:05:08;101072.09;;;14.95;100.00
35910;BME280;22004;49.120;-0.200;2022-09-24T01:07:34;101069.59;;;14.92;100.00
35910;BME280;22004;49.120;-0.200;2022-09-24T01:09:59;101066.06;;;14.77;100.00
35910;BME280;22004;49.120;-0.200;2022-09-24T01:12:34;101067.31;;;14.86;100.00
35910;BME280;22004;49.120;-0.200;2022-09-24T01:17:54;101057.50;;;14.87;100.00
35910;BME280;22004;49.120;-0.200;2022-09-24T01:29:28;101047.69;;;14.87;100.00
35910;BME280;22004;49.120;-0.200;2022-09-24T01:34:25;101034.31;;;14.87;100.00
35910;BME280;22004;49.120;-0.200;2022-09-24T01:36:55;101039.66;;;14.87;100.00
35910;BME280;22004;49.120;-0.200;2022-09-24T01:39:22;101038.63;;;14.75;100.00
35910;BME280;22004;49.120;-0.200;2022-09-24T01:41:48;101032.81;;;14.83;100.00
35910;BME280;22004;49.120;-0.200;2022-09-24T01:44:15;101022.88;;;14.71;100.00
35910;BME280;22004;49.120;-0.200;2022-09-24T01:46:42;101018.31;;;14.87;100.00
35910;BME280;22004;49.120;-0.200;2022-09-24T01:49:08;101017.22;;;14.61;100.00
35910;BME280;22004;49.120;-0.200;2022-09-24T01:51:40;101008.78;;;14.83;100.00
35910;BME280;22004;49.120;-0.200;2022-09-24T01:54:14;101001.81;;;14.80;100.00
35910;BME280;22004;49.120;-0.200;2022-09-24T01:56:46;100997.25;;;14.68;100.00
35910;BME280;22004;49.120;-0.200;2022-09-24T01:59:18;101003.50;;;14.53;100.00
35910;BME280;22004;49.120;-0.200;2022-09-24T02:01:50;100997.53;;;14.78;100.00
35910;BME280;22004;49.120;-0.200;2022-09-24T02:04:20;101009.91;;;14.79;100.00
35910;BME280;22004;49.120;-0.200;2022-09-24T02:06:53;101015.06;;;14.82;100.00
35910;BME280;22004;49.120;-0.200;2022-09-24T02:09:35;101010.09;;;14.76;100.00
35910;BME280;22004;49.120;-0.200;2022-09-24T02:14:38;101007.16;;;14.80;100.00
35910;BME280;22004;49.120;-0.200;2022-09-24T02:17:05;101011.81;;;14.77;100.00
35910;BME280;22004;49.120;-0.200;2022-09-24T02:19:34;101017.53;;;14.85;100.00
35910;BME280;22004;49.120;-0.200;2022-09-24T02:22:01;101027.84;;;14.77;100.00
35910;BME280;22004;49.120;-0.200;2022-09-24T02:24:36;101028.22;;;14.71;100.00
35910;BME280;22004;49.120;-0.200;2022-09-24T02:27:04;101025.75;;;14.82;100.00
35910;BME280;22004;49.120;-0.200;2022-09-24T02:29:29;101029.94;;;14.57;100.00
35910;BME280;22004;49.120;-0.200;2022-09-24T02:31:56;101034.09;;;14.32;100.00
35910;BME280;22004;49.120;-0.200;2022-09-24T02:34:31;101024.38;;;14.46;100.00
35910;BME280;22004;49.120;-0.200;2022-09-24T02:37:06;101031.81;;;14.55;100.00
35910;BME280;22004;49.120;-0.200;2022-09-24T02:39:31;101032.03;;;14.81;100.00
35910;BME280;22004;49.120;-0.200;2022-09-24T02:41:57;101028.88;;;14.74;100.00
35910;BME280;22004;49.120;-0.200;2022-09-24T02:44:23;101037.66;;;14.62;100.00
35910;BME280;22004;49.120;-0.200;2022-09-24T02:46:48;101025.06;;;14.78;100.00
35910;BME280;22004;49.120;-0.200;2022-09-24T02:49:14;101028.31;;;14.84;100.00
35910;BME280;22004;49.120;-0.200;2022-09-24T02:51:41;101024.44;;;14.75;100.00
35910;BME280;22004;49.120;-0.200;2022-09-24T02:54:07;101025.53;;;14.85;100.00
35910;BME280;22004;49.120;-0.200;2022-09-24T02:56:32;101019.25;;;14.86;100.00
35910;BME280;22004;49.120;-0.200;2022-09-24T02:58:58;101019.91;;;14.90;100.00
35910;BME280;22004;49.120;-0.200;2022-09-24T03:01:24;101018.09;;;14.90;100.00
35910;BME280;22004;49.120;-0.200;2022-09-24T03:03:50;101014.59;;;14.90;100.00
35910;BME280;22004;49.120;-0.200;2022-09-24T03:06:16;101016.38;;;14.89;100.00
35910;BME280;22004;49.120;-0.200;2022-09-24T03:08:42;101015.31;;;14.92;100.00
35910;BME280;22004;49.120;-0.200;2022-09-24T03:11:08;101005.69;;;14.89;100.00
35910;BME280;22004;49.120;-0.200;2022-09-24T03:13:35;101004.38;;;14.82;100.00
35910;BME280;22004;49.120;-0.200;2022-09-24T03:16:01;101001.72;;;14.82;100.00
35910;BME280;22004;49.120;-0.200;2022-09-24T03:18:26;100991.88;;;14.82;100.00
35910;BME280;22004;49.120;-0.200;2022-09-24T03:21:02;101000.94;;;14.80;100.00
35910;BME280;22004;49.120;-0.200;2022-09-24T03:23:28;101004.16;;;14.85;100.00
35910;BME280;22004;49.120;-0.200;2022-09-24T03:25:54;100999.78;;;14.84;100.00
35910;BME280;22004;49.120;-0.200;2022-09-24T03:28:19;101000.44;;;14.88;100.00
35910;BME280;22004;49.120;-0.200;2022-09-24T03:30:45;101003.03;;;14.89;100.00
35910;BME280;22004;49.120;-0.200;2022-09-24T03:33:35;101010.47;;;14.84;100.00
35910;BME280;22004;49.120;-0.200;2022-09-24T03:36:02;101005.06;;;14.86;100.00
35910;BME280;22004;49.120;-0.200;2022-09-24T03:38:29;100999.97;;;14.81;100.00
35910;BME280;22004;49.120;-0.200;2022-09-24T03:40:57;100998.09;;;14.83;100.00
35910;BME280;22004;49.120;-0.200;2022-09-24T03:43:23;101004.59;;;14.79;100.00
35910;BME280;22004;49.120;-0.200;2022-09-24T03:45:49;100998.84;;;14.85;100.00
35910;BME280;22004;49.120;-0.200;2022-09-24T03:48:18;100999.25;;;14.79;100.00
35910;BME280;22004;49.120;-0.200;2022-09-24T03:50:44;100993.69;;;14.82;100.00
35910;BME280;22004;49.120;-0.200;2022-09-24T03:53:11;100998.63;;;14.88;100.00
35910;BME280;22004;49.120;-0.200;2022-09-24T03:55:44;100991.75;;;14.84;100.00
35910;BME280;22004;49.120;-0.200;2022-09-24T03:58:11;100999.50;;;14.89;100.00
35910;BME280;22004;49.120;-0.200;2022-09-24T04:00:37;100998.63;;;14.88;100.00
35910;BME280;22004;49.120;-0.200;2022-09-24T04:03:04;101000.34;;;14.89;100.00
35910;BME280;22004;49.120;-0.200;2022-09-24T04:05:29;101003.81;;;14.77;100.00
35910;BME280;22004;49.120;-0.200;2022-09-24T04:07:55;100998.19;;;14.67;100.00
35910;BME280;22004;49.120;-0.200;2022-09-24T04:10:21;101004.13;;;14.72;100.00
35910;BME280;22004;49.120;-0.200;2022-09-24T04:12:49;101010.00;;;14.77;100.00
35910;BME280;22004;49.120;-0.200;2022-09-24T04:15:14;101009.13;;;14.62;100.00
35910;BME280;22004;49.120;-0.200;2022-09-24T04:17:49;101000.28;;;14.76;100.00
35910;BME280;22004;49.120;-0.200;2022-09-24T04:20:14;100999.50;;;14.60;100.00
35910;BME280;22004;49.120;-0.200;2022-09-24T04:22:40;101001.16;;;14.48;100.00
35910;BME280;22004;49.120;-0.200;2022-09-24T04:25:05;101000.56;;;14.57;100.00
35910;BME280;22004;49.120;-0.200;2022-09-24T04:27:31;101005.81;;;14.59;100.00
35910;BME280;22004;49.120;-0.200;2022-09-24T04:29:56;101004.19;;;14.56;100.00
35910;BME280;22004;49.120;-0.200;2022-09-24T04:32:22;101001.72;;;14.39;100.00
35910;BME280;22004;49.120;-0.200;2022-09-24T04:34:47;101005.91;;;14.43;100.00
35910;BME280;22004;49.120;-0.200;2022-09-24T04:37:13;100997.81;;;14.59;100.00
35910;BME280;22004;49.120;-0.200;2022-09-24T04:39:38;101002.66;;;14.67;100.00
35910;BME280;22004;49.120;-0.200;2022-09-24T04:42:04;101003.97;;;14.59;100.00
35910;BME280;22004;49.120;-0.200;2022-09-24T04:44:29;100996.56;;;14.50;100.00
35910;BME280;22004;49.120;-0.200;2022-09-24T04:46:54;101001.41;;;14.58;100.00
35910;BME280;22004;49.120;-0.200;2022-09-24T04:49:27;101003.78;;;14.62;100.00
35910;BME280;22004;49.120;-0.200;2022-09-24T04:51:53;101000.66;;;14.70;100.00
35910;BME280;22004;49.120;-0.200;2022-09-24T04:54:22;101004.75;;;14.76;100.00
35910;BME280;22004;49.120;-0.200;2022-09-24T04:56:48;100992.19;;;14.78;100.00
35910;BME280;22004;49.120;-0.200;2022-09-24T04:59:13;101006.59;;;14.75;100.00
35910;BME280;22004;49.120;-0.200;2022-09-24T05:01:38;101009.63;;;14.69;100.00
35910;BME280;22004;49.120;-0.200;2022-09-24T05:04:04;101009.41;;;14.58;100.00
35910;BME280;22004;49.120;-0.200;2022-09-24T05:06:29;101003.22;;;14.43;100.00
35910;BME280;22004;49.120;-0.200;2022-09-24T05:08:54;101008.56;;;14.43;100.00
35910;BME280;22004;49.120;-0.200;2022-09-24T05:11:20;101002.94;;;14.47;100.00
35910;BME280;22004;49.120;-0.200;2022-09-24T05:13:45;101000.84;;;14.53;100.00
35910;BME280;22004;49.120;-0.200;2022-09-24T05:16:10;101003.31;;;14.56;100.00
35910;BME280;22004;49.120;-0.200;2022-09-24T05:18:36;101011.41;;;14.54;100.00
35910;BME280;22004;49.120;-0.200;2022-09-24T05:21:01;101003.44;;;14.40;100.00
35910;BME280;22004;49.120;-0.200;2022-09-24T05:23:26;101015.91;;;14.39;100.00
35910;BME280;22004;49.120;-0.200;2022-09-24T05:25:52;101016.41;;;14.31;100.00
35910;BME280;22004;49.120;-0.200;2022-09-24T05:28:36;101020.88;;;14.45;100.00
35910;BME280;22004;49.120;-0.200;2022-09-24T05:31:02;101024.41;;;14.60;100.00
35910;BME280;22004;49.120;-0.200;2022-09-24T05:33:27;101032.50;;;14.59;100.00
35910;BME280;22004;49.120;-0.200;2022-09-24T05:35:54;101031.72;;;14.57;100.00
35910;BME280;22004;49.120;-0.200;2022-09-24T05:38:19;101024.41;;;14.60;100.00
35910;BME280;22004;49.120;-0.200;2022-09-24T05:40:44;101028.53;;;14.66;100.00
35910;BME280;22004;49.120;-0.200;2022-09-24T05:43:13;101028.28;;;14.26;100.00
35910;BME280;22004;49.120;-0.200;2022-09-24T05:45:39;101020.00;;;14.30;100.00
35910;BME280;22004;49.120;-0.200;2022-09-24T05:48:06;101018.94;;;14.47;100.00
35910;BME280;22004;49.120;-0.200;2022-09-24T05:50:31;101018.59;;;14.54;100.00
35910;BME280;22004;49.120;-0.200;2022-09-24T05:52:59;101026.69;;;14.38;100.00
35910;BME280;22004;49.120;-0.200;2022-09-24T05:55:25;101023.75;;;14.42;100.00
35910;BME280;22004;49.120;-0.200;2022-09-24T05:57:51;101029.94;;;14.43;100.00
35910;BME280;22004;49.120;-0.200;2022-09-24T06:00:16;101023.81;;;14.41;100.00
35910;BME280;22004;49.120;-0.200;2022-09-24T06:02:41;101026.19;;;14.31;100.00
35910;BME280;22004;49.120;-0.200;2022-09-24T06:05:07;101033.84;;;14.37;100.00
35910;BME280;22004;49.120;-0.200;2022-09-24T06:07:33;101036.72;;;14.63;100.00
35910;BME280;22004;49.120;-0.200;2022-09-24T06:09:58;101041.84;;;14.37;100.00
35910;BME280;22004;49.120;-0.200;2022-09-24T06:12:25;101040.97;;;14.37;100.00
35910;BME280;22004;49.120;-0.200;2022-09-24T06:14:50;101050.31;;;14.29;100.00
35910;BME280;22004;49.120;-0.200;2022-09-24T06:17:19;101062.31;;;14.37;100.00
35910;BME280;22004;49.120;-0.200;2022-09-24T06:19:44;101059.09;;;14.46;100.00
35910;BME280;22004;49.120;-0.200;2022-09-24T06:22:11;101060.47;;;14.68;100.00
35910;BME280;22004;49.120;-0.200;2022-09-24T06:24:37;101068.84;;;14.61;100.00
35910;BME280;22004;49.120;-0.200;2022-09-24T06:27:02;101075.44;;;14.70;100.00
35910;BME280;22004;49.120;-0.200;2022-09-24T06:29:28;101065.19;;;14.48;100.00
35910;BME280;22004;49.120;-0.200;2022-09-24T06:31:53;101075.00;;;14.47;100.00
35910;BME280;22004;49.120;-0.200;2022-09-24T06:34:18;101077.63;;;14.63;100.00
35910;BME280;22004;49.120;-0.200;2022-09-24T06:36:44;101080.63;;;14.43;100.00
35910;BME280;22004;49.120;-0.200;2022-09-24T06:39:09;101075.19;;;14.44;100.00
35910;BME280;22004;49.120;-0.200;2022-09-24T06:41:35;101083.09;;;14.46;100.00
35910;BME280;22004;49.120;-0.200;2022-09-24T06:44:00;101078.41;;;14.65;100.00
35910;BME280;22004;49.120;-0.200;2022-09-24T06:46:25;101078.00;;;14.72;100.00
35910;BME280;22004;49.120;-0.200;2022-09-24T06:48:51;101089.50;;;14.58;100.00
35910;BME280;22004;49.120;-0.200;2022-09-24T06:51:18;101090.34;;;14.58;100.00
35910;BME280;22004;49.120;-0.200;2022-09-24T06:53:44;101093.53;;;14.65;100.00
35910;BME280;22004;49.120;-0.200;2022-09-24T06:56:09;101097.53;;;14.58;100.00
35910;BME280;22004;49.120;-0.200;2022-09-24T06:58:34;101093.84;;;14.75;100.00
35910;BME280;22004;49.120;-0.200;2022-09-24T07:01:01;101098.72;;;14.68;100.00
35910;BME280;22004;49.120;-0.200;2022-09-24T07:06:05;101101.94;;;14.73;100.00
35910;BME280;22004;49.120;-0.200;2022-09-24T07:08:31;101111.97;;;14.70;100.00
35910;BME280;22004;49.120;-0.200;2022-09-24T07:10:57;101108.22;;;14.87;100.00
35910;BME280;22004;49.120;-0.200;2022-09-24T07:13:22;101107.13;;;14.76;100.00
35910;BME280;22004;49.120;-0.200;2022-09-24T07:15:49;101104.69;;;14.72;100.00
35910;BME280;22004;49.120;-0.200;2022-09-24T07:18:15;101112.91;;;14.69;100.00
35910;BME280;22004;49.120;-0.200;2022-09-24T07:20:41;101111.78;;;14.73;100.00
35910;BME280;22004;49.120;-0.200;2022-09-24T07:23:08;101112.53;;;14.89;100.00
35910;BME280;22004;49.120;-0.200;2022-09-24T07:25:36;101113.88;;;14.96;100.00
35910;BME280;22004;49.120;-0.200;2022-09-24T07:28:10;101117.09;;;15.02;100.00
35910;BME280;22004;49.120;-0.200;2022-09-24T07:30:36;101123.78;;;14.94;100.00
35910;BME280;22004;49.120;-0.200;2022-09-24T07:35:37;101121.69;;;14.85;100.00
35910;BME280;22004;49.120;-0.200;2022-09-24T07:38:05;101118.56;;;14.93;100.00
35910;BME280;22004;49.120;-0.200;2022-09-24T07:40:32;101125.13;;;15.02;100.00
35910;BME280;22004;49.120;-0.200;2022-09-24T07:42:58;101130.19;;;14.92;100.00
35910;BME280;22004;49.120;-0.200;2022-09-24T07:45:25;101128.56;;;14.89;100.00
35910;BME280;22004;49.120;-0.200;2022-09-24T07:47:56;101125.13;;;14.87;100.00
35910;BME280;22004;49.120;-0.200;2022-09-24T07:50:22;101129.91;;;14.96;100.00
35910;BME280;22004;49.120;-0.200;2022-09-24T07:52:50;101130.84;;;14.95;100.00
35910;BME280;22004;49.120;-0.200;2022-09-24T07:55:16;101133.53;;;14.95;100.00
35910;BME280;22004;49.120;-0.200;2022-09-24T07:57:52;101139.44;;;14.86;100.00
35910;BME280;22004;49.120;-0.200;2022-09-24T08:00:19;101134.38;;;14.96;100.00
35910;BME280;22004;49.120;-0.200;2022-09-24T08:02:46;101142.31;;;14.83;100.00
35910;BME280;22004;49.120;-0.200;2022-09-24T08:05:12;101143.53;;;14.92;100.00
35910;BME280;22004;49.120;-0.200;2022-09-24T08:07:39;101146.59;;;15.00;100.00
35910;BME280;22004;49.120;-0.200;2022-09-24T08:10:05;101148.69;;;14.95;100.00
35910;BME280;22004;49.120;-0.200;2022-09-24T08:12:31;101149.34;;;14.98;100.00
35910;BME280;22004;49.120;-0.200;2022-09-24T08:14:56;101148.63;;;14.96;100.00
35910;BME280;22004;49.120;-0.200;2022-09-24T08:17:21;101145.44;;;15.04;100.00
35910;BME280;22004;49.120;-0.200;2022-09-24T08:19:47;101150.50;;;14.94;100.00
35910;BME280;22004;49.120;-0.200;2022-09-24T08:22:12;101150.13;;;15.01;100.00
35910;BME280;22004;49.120;-0.200;2022-09-24T08:24:41;101150.88;;;15.03;100.00
35910;BME280;22004;49.120;-0.200;2022-09-24T08:27:07;101161.38;;;15.06;100.00
35910;BME280;22004;49.120;-0.200;2022-09-24T08:29:33;101162.41;;;15.03;100.00
35910;BME280;22004;49.120;-0.200;2022-09-24T08:31:59;101167.00;;;15.01;100.00
35910;BME280;22004;49.120;-0.200;2022-09-24T08:34:25;101173.03;;;15.05;100.00
35910;BME280;22004;49.120;-0.200;2022-09-24T08:36:50;101173.69;;;15.08;100.00
35910;BME280;22004;49.120;-0.200;2022-09-24T08:39:15;101177.78;;;15.14;100.00
35910;BME280;22004;49.120;-0.200;2022-09-24T08:41:54;101176.25;;;15.10;100.00
35910;BME280;22004;49.120;-0.200;2022-09-24T08:44:38;101183.13;;;14.99;100.00
35910;BME280;22004;49.120;-0.200;2022-09-24T08:47:42;101184.56;;;15.05;100.00
35910;BME280;22004;49.120;-0.200;2022-09-24T08:50:16;101190.28;;;15.13;100.00
35910;BME280;22004;49.120;-0.200;2022-09-24T09:00:48;101190.78;;;15.20;100.00
35910;BME280;22004;49.120;-0.200;2022-09-24T09:03:45;101195.75;;;15.26;100.00
35910;BME280;22004;49.120;-0.200;2022-09-24T09:11:35;101196.59;;;15.27;100.00
35910;BME280;22004;49.120;-0.200;2022-09-24T09:14:08;101198.47;;;15.25;100.00
35910;BME280;22004;49.120;-0.200;2022-09-24T09:17:11;101197.84;;;15.21;100.00
35910;BME280;22004;49.120;-0.200;2022-09-24T09:19:41;101198.97;;;15.17;100.00
35910;BME280;22004;49.120;-0.200;2022-09-24T09:22:16;101203.94;;;15.23;100.00
35910;BME280;22004;49.120;-0.200;2022-09-24T09:24:48;101213.09;;;15.19;100.00
35910;BME280;22004;49.120;-0.200;2022-09-24T09:27:15;101209.16;;;15.25;100.00
35910;BME280;22004;49.120;-0.200;2022-09-24T09:29:55;101201.25;;;15.23;100.00
35910;BME280;22004;49.120;-0.200;2022-09-24T09:40:56;101213.00;;;15.35;100.00
35910;BME280;22004;49.120;-0.200;2022-09-24T09:43:23;101222.53;;;15.39;100.00
35910;BME280;22004;49.120;-0.200;2022-09-24T09:45:54;101222.53;;;15.39;100.00
35910;BME280;22004;49.120;-0.200;2022-09-24T09:48:23;101217.41;;;15.36;100.00
35910;BME280;22004;49.120;-0.200;2022-09-24T09:50:54;101221.97;;;15.34;100.00
35910;BME280;22004;49.120;-0.200;2022-09-24T09:53:25;101223.41;;;15.40;100.00
35910;BME280;22004;49.120;-0.200;2022-09-24T09:55:59;101231.03;;;15.31;100.00
35910;BME280;22004;49.120;-0.200;2022-09-24T09:58:39;101226.84;;;15.42;100.00
35910;BME280;22004;49.120;-0.200;2022-09-24T10:01:09;101232.19;;;15.42;100.00
35910;BME280;22004;49.120;-0.200;2022-09-24T10:06:10;101227.31;;;15.34;100.00
35910;BME280;22004;49.120;-0.200;2022-09-24T10:08:36;101232.38;;;15.39;100.00
35910;BME280;22004;49.120;-0.200;2022-09-24T10:11:01;101228.00;;;15.52;100.00
35910;BME280;22004;49.120;-0.200;2022-09-24T10:13:28;101231.63;;;15.51;100.00
35910;BME280;22004;49.120;-0.200;2022-09-24T10:16:01;101222.53;;;15.39;100.00
35910;BME280;22004;49.120;-0.200;2022-09-24T10:18:33;101224.28;;;15.40;100.00
35910;BME280;22004;49.120;-0.200;2022-09-24T10:21:03;101229.13;;;15.33;100.00
35910;BME280;22004;49.120;-0.200;2022-09-24T10:23:35;101221.69;;;15.39;100.00
35910;BME280;22004;49.120;-0.200;2022-09-24T10:26:02;101232.56;;;15.36;100.00
35910;BME280;22004;49.120;-0.200;2022-09-24T10:28:29;101231.44;;;15.40;100.00
35910;BME280;22004;49.120;-0.200;2022-09-24T10:31:25;101237.63;;;15.40;100.00
35910;BME280;22004;49.120;-0.200;2022-09-24T10:33:54;101240.41;;;15.39;100.00
35910;BME280;22004;49.120;-0.200;2022-09-24T10:36:26;101246.50;;;15.41;100.00
35910;BME280;22004;49.120;-0.200;2022-09-24T10:41:33;101237.16;;;15.48;100.00
35910;BME280;22004;49.120;-0.200;2022-09-24T10:44:08;101244.78;;;15.54;100.00
35910;BME280;22004;49.120;-0.200;2022-09-24T10:54:41;101258.56;;;15.48;100.00
35910;BME280;22004;49.120;-0.200;2022-09-24T10:57:45;101252.72;;;15.41;100.00
35910;BME280;22004;49.120;-0.200;2022-09-24T11:00:21;101253.56;;;15.42;100.00
35910;BME280;22004;49.120;-0.200;2022-09-24T11:03:16;101255.19;;;15.44;100.00
35910;BME280;22004;49.120;-0.200;2022-09-24T11:05:53;101249.28;;;15.54;100.00
35910;BME280;22004;49.120;-0.200;2022-09-24T11:22:10;101262.53;;;15.55;100.00
35910;BME280;22004;49.120;-0.200;2022-09-24T11:32:35;101254.91;;;15.63;100.00
35910;BME280;22004;49.120;-0.200;2022-09-24T11:38:11;101254.72;;;15.81;100.00
35910;BME280;22004;49.120;-0.200;2022-09-24T11:43:31;101258.34;;;15.80;100.00
35910;BME280;22004;49.120;-0.200;2022-09-24T11:46:30;101256.25;;;15.85;100.00
35910;BME280;22004;49.120;-0.200;2022-09-24T11:51:38;101253.19;;;15.91;100.00
35910;BME280;22004;49.120;-0.200;2022-09-24T11:56:43;101248.53;;;15.80;100.00
35910;BME280;22004;49.120;-0.200;2022-09-24T11:59:24;101256.44;;;15.82;100.00
35910;BME280;22004;49.120;-0.200;2022-09-24T12:01:59;101258.72;;;15.74;100.00
35910;BME280;22004;49.120;-0.200;2022-09-24T12:07:12;101254.59;;;15.68;100.00
35910;BME280;22004;49.120;-0.200;2022-09-24T12:09:49;101255.38;;;15.70;100.00
35910;BME280;22004;49.120;-0.200;2022-09-24T12:12:26;101252.91;;;15.67;100.00
35910;BME280;22004;49.120;-0.200;2022-09-24T12:14:57;101250.88;;;15.71;100.00
35910;BME280;22004;49.120;-0.200;2022-09-24T12:17:55;101246.56;;;15.68;100.00
35910;BME280;22004;49.120;-0.200;2022-09-24T12:23:05;101240.59;;;15.50;100.00
35910;BME280;22004;49.120;-0.200;2022-09-24T12:25:38;101244.13;;;15.51;100.00
35910;BME280;22004;49.120;-0.200;2022-09-24T12:28:08;101247.06;;;15.46;100.00
35910;BME280;22004;49.120;-0.200;2022-09-24T12:33:34;101247.75;;;15.49;100.00
35910;BME280;22004;49.120;-0.200;2022-09-24T12:36:26;101250.16;;;15.40;100.00
35910;BME280;22004;49.120;-0.200;2022-09-24T12:39:07;101252.34;;;15.19;100.00
35910;BME280;22004;49.120;-0.200;2022-09-24T12:41:35;101253.75;;;15.10;100.00
35910;BME280;22004;49.120;-0.200;2022-09-24T12:46:55;101243.19;;;15.37;100.00
35910;BME280;22004;49.120;-0.200;2022-09-24T12:51:58;101239.66;;;15.22;100.00
35910;BME280;22004;49.120;-0.200;2022-09-24T12:54:43;101246.31;;;15.29;100.00
35910;BME280;22004;49.120;-0.200;2022-09-24T12:57:18;101244.13;;;15.22;100.00
35910;BME280;22004;49.120;-0.200;2022-09-24T13:00:04;101251.25;;;15.07;100.00
35910;BME280;22004;49.120;-0.200;2022-09-24T13:02:50;101259.31;;;14.76;100.00
35910;BME280;22004;49.120;-0.200;2022-09-24T13:10:32;101257.31;;;14.80;100.00
35910;BME280;22004;49.120;-0.200;2022-09-24T13:13:20;101268.63;;;14.99;100.00
35910;BME280;22004;49.120;-0.200;2022-09-24T13:15:58;101270.84;;;14.77;100.00
35910;BME280;22004;49.120;-0.200;2022-09-24T13:18:24;101279.13;;;15.03;100.00
35910;BME280;22004;49.120;-0.200;2022-09-24T13:21:06;101278.13;;;14.89;100.00
35910;BME280;22004;49.120;-0.200;2022-09-24T13:26:03;101278.06;;;15.05;100.00
35910;BME280;22004;49.120;-0.200;2022-09-24T13:28:31;101273.41;;;15.09;100.00
35910;BME280;22004;49.120;-0.200;2022-09-24T13:33:38;101282.78;;;15.16;100.00
35910;BME280;22004;49.120;-0.200;2022-09-24T13:36:13;101283.88;;;14.97;100.00
35910;BME280;22004;49.120;-0.200;2022-09-24T13:41:21;101277.22;;;15.19;100.00
35910;BME280;22004;49.120;-0.200;2022-09-24T13:46:40;101277.06;;;15.22;100.00
35910;BME280;22004;49.120;-0.200;2022-09-24T13:49:13;101270.94;;;15.20;100.00
35910;BME280;22004;49.120;-0.200;2022-09-24T13:51:41;101273.50;;;15.22;100.00
35910;BME280;22004;49.120;-0.200;2022-09-24T13:54:32;101275.53;;;15.32;100.00
35910;BME280;22004;49.120;-0.200;2022-09-24T13:57:11;101281.88;;;15.01;100.00
35910;BME280;22004;49.120;-0.200;2022-09-24T13:59:38;101285.56;;;14.84;100.00
35910;BME280;22004;49.120;-0.200;2022-09-24T14:02:21;101279.38;;;14.84;100.00
35910;BME280;22004;49.120;-0.200;2022-09-24T14:05:00;101279.31;;;14.99;100.00
35910;BME280;22004;49.120;-0.200;2022-09-24T14:07:26;101277.59;;;14.98;100.00
35910;BME280;22004;49.120;-0.200;2022-09-24T14:10:25;101280.69;;;14.76;100.00
35910;BME280;22004;49.120;-0.200;2022-09-24T14:13:12;101288.81;;;14.59;100.00
35910;BME280;22004;49.120;-0.200;2022-09-24T14:18:20;101275.91;;;15.12;100.00
35910;BME280;22004;49.120;-0.200;2022-09-24T14:21:00;101272.38;;;15.11;100.00
35910;BME280;22004;49.120;-0.200;2022-09-24T14:23:36;101273.50;;;15.22;100.00
35910;BME280;22004;49.120;-0.200;2022-09-24T14:26:03;101268.84;;;15.25;100.00
35910;BME280;22004;49.120;-0.200;2022-09-24T14:28:30;101266.63;;;15.18;100.00
35910;BME280;22004;49.120;-0.200;2022-09-24T14:30:57;101264.44;;;15.24;100.00
35910;BME280;22004;49.120;-0.200;2022-09-24T14:33:29;101266.19;;;15.40;100.00
35910;BME280;22004;49.120;-0.200;2022-09-24T14:35:58;101260.84;;;15.40;100.00
35910;BME280;22004;49.120;-0.200;2022-09-24T14:38:55;101264.47;;;15.39;100.00
35910;BME280;22004;49.120;-0.200;2022-09-24T14:41:24;101256.03;;;15.45;100.00
35910;BME280;22004;49.120;-0.200;2022-09-24T14:46:45;101258.56;;;15.48;100.00
35910;BME280;22004;49.120;-0.200;2022-09-24T14:49:24;101255.09;;;15.46;100.00
35910;BME280;22004;49.120;-0.200;2022-09-24T14:51:58;101259.41;;;15.48;100.00
35910;BME280;22004;49.120;-0.200;2022-09-24T14:54:31;101258.56;;;15.48;100.00